Time;durP1;ratioP1;P1;durP2;ratioP2;P2;SDS_P1;SDS_P2;PMS_P1;PMS_P2;Temp;Humidity;BMP_temperature;BMP_pressure;BME280_temperature;BME280_humidity;BME280_pressure;Samples;Min_cycle;Max_cycle;Signal;HPM_P1;HPM_P2
2023/12/17 01:18:32;;;;;;;0.55;0.55;;;;;;;3.57;59.37;102017.75;5368963;26;20440;-93
2023/12/17 01:20:59;;;;;;;3.08;1.05;;;;;;;3.52;59.37;102014.13;5348309;26;20126;-94
2023/12/17 01:24:33;;;;;;;;;;;;;;;;;;;;;
2023/12/17 01:27:01;;;;;;;0.00;0.00;;;;;;;3.46;59.37;102032.84;5355315;26;37050;-93
2023/12/17 01:29:34;;;;;;;0.68;0.68;;;;;;;3.36;59.36;102021.38;5311231;26;20068;-94
2023/12/17 01:31:59;;;;;;;0.28;0.28;;;;;;;3.34;59.36;102007.56;5313437;26;20052;-91
2023/12/17 01:34:32;;;;;;;0.73;0.73;;;;;;;3.49;59.37;101999.47;5311513;26;20066;-93
2023/12/17 01:40:39;;;;;;;;;;;;;;;3.47;59.37;102002.81;5321618;27;20060;-92
2023/12/17 01:43:06;;;;;;;0.00;0.00;;;;;;;3.54;59.38;102007.34;5357476;26;20252;-93
2023/12/17 01:45:42;;;;;;;0.47;0.47;;;;;;;3.40;59.37;102014.62;5311165;26;20692;-93
2023/12/17 01:48:28;;;;;;;;;;;;;;;;;;;;;
2023/12/17 01:51:06;;;;;;;0.80;0.80;;;;;;;3.50;59.37;102029.53;5331991;26;35294;-92
2023/12/17 01:53:57;;;;;;;1.02;0.98;;;;;;;3.29;59.35;102034.84;5289835;26;20432;-92
2023/12/17 01:56:30;;;;;;;0.10;0.10;;;;;;;3.34;59.36;102027.28;5307746;26;20087;-91
2023/12/17 01:59:36;;;;;;;1.02;1.02;;;;;;;3.38;59.36;102019.72;5308059;26;20106;-93
2023/12/17 02:02:02;;;;;;;0.40;0.40;;;;;;;3.31;59.35;102014.28;5308843;26;20060;-92
2023/12/17 02:04:27;;;;;;;1.55;1.45;;;;;;;3.51;59.37;102017.53;5307448;26;20072;-91
2023/12/17 02:06:55;;;;;;;0.75;0.75;;;;;;;3.49;59.37;102024.34;5307389;26;20741;-92
2023/12/17 02:09:20;;;;;;;0.25;0.25;;;;;;;3.52;59.37;102027.00;5307618;26;20064;-92
2023/12/17 02:11:58;;;;;;;0.68;0.35;;;;;;;3.61;59.38;102012.75;5307193;26;20122;-93
2023/12/17 02:14:26;;;;;;;0.10;0.10;;;;;;;3.55;59.38;102007.41;5310022;26;20053;-92
2023/12/17 02:17:08;;;;;;;2.80;2.25;;;;;;;3.45;59.37;102019.91;5307906;26;20425;-93
2023/12/17 02:27:04;;;;;;;;;;;;;;;;;;;;;
2023/12/17 02:46:14;;;;;;;;;;;;;;;;;;;;;
2023/12/17 02:50:36;;;;;;;;;;;;;;;;;;;;;
2023/12/17 02:52:32;;;;;;;0.15;0.15;;;;;;;3.44;59.36;101977.84;5268108;27;20073;-94
2023/12/17 02:58:44;;;;;;;0.37;0.37;;;;;;;3.67;59.38;101986.31;5278221;27;20457;-93
2023/12/17 03:01:09;;;;;;;5.72;1.35;;;;;;;3.56;59.37;101975.69;5279332;27;20087;-91
2023/12/17 03:03:35;;;;;;;1.05;1.05;;;;;;;3.66;59.38;101971.69;5300492;26;20068;-91
2023/12/17 03:06:00;;;;;;;1.23;1.12;;;;;;;3.55;59.38;101965.31;5310633;26;20091;-91
2023/12/17 03:08:26;;;;;;;1.70;1.50;;;;;;;3.51;59.37;101963.47;5309991;26;20080;-92
2023/12/17 03:10:54;;;;;;;0.75;0.60;;;;;;;3.62;59.38;101956.97;5307599;26;20066;-92
2023/12/17 03:13:19;;;;;;;0.65;0.62;;;;;;;3.61;59.38;101957.81;5311817;26;20056;-92
2023/12/17 03:15:47;;;;;;;0.08;0.08;;;;;;;3.49;59.37;101960.84;5311348;26;20387;-92
2023/12/17 03:18:22;;;;;;;1.30;1.20;;;;;;;3.58;59.37;101955.13;5329933;26;20078;-92
2023/12/17 03:20:57;;;;;;;0.43;0.37;;;;;;;3.53;59.38;101961.81;5314088;26;20056;-92
2023/12/17 03:23:23;;;;;;;1.17;1.08;;;;;;;3.48;59.37;101971.09;5311520;26;20044;-91
2023/12/17 03:29:21;;;;;;;0.62;0.62;;;;;;;3.77;59.39;101978.03;5356321;26;20160;-93
2023/12/17 03:31:46;;;;;;;0.45;0.45;;;;;;;3.71;59.39;101970.13;5311374;26;20397;-94
2023/12/17 03:34:24;;;;;;;0.65;0.65;;;;;;;3.68;59.39;101970.91;5311020;26;20078;-93
2023/12/17 03:37:43;;;;;;;;;;;;;;;;;;;;;
2023/12/17 03:40:15;;;;;;;3.72;2.28;;;;;;;3.95;59.40;101970.00;5335901;26;35383;-91
2023/12/17 03:42:40;;;;;;;2.15;1.95;;;;;;;3.95;59.39;101958.00;5310743;26;20079;-92
2023/12/17 03:45:33;;;;;;;4.43;2.20;;;;;;;3.82;59.38;101958.47;5328945;26;20104;-93
2023/12/17 03:48:30;;;;;;;0.88;0.88;;;;;;;3.99;59.41;101961.53;5325722;26;20117;-93
2023/12/17 03:50:55;;;;;;;5.43;0.93;;;;;;;3.87;59.39;101962.06;5330281;26;20062;-92
2023/12/17 03:53:20;;;;;;;1.20;1.10;;;;;;;3.70;59.38;101965.81;5310572;26;20076;-92
2023/12/17 03:55:48;;;;;;;2.37;2.17;;;;;;;3.74;59.38;101954.75;5308291;26;24439;-93
2023/12/17 03:58:13;;;;;;;1.65;1.23;;;;;;;3.98;59.39;101952.06;5307477;26;20056;-92
2023/12/17 04:00:38;;;;;;;0.15;0.15;;;;;;;3.96;59.39;101949.44;5306168;26;27209;-91
2023/12/17 04:03:04;;;;;;;1.15;0.93;;;;;;;3.68;59.37;101952.00;5306717;26;20125;-91
2023/12/17 04:05:29;;;;;;;0.65;0.65;;;;;;;3.61;59.38;101948.37;5306433;26;20064;-91
2023/12/17 04:07:55;;;;;;;0.03;0.03;;;;;;;3.54;59.38;101950.69;5306346;26;20111;-91
2023/12/17 04:10:20;;;;;;;0.77;0.77;;;;;;;3.60;59.37;101958.63;5306454;26;20100;-90
2023/12/17 04:12:46;;;;;;;0.65;0.55;;;;;;;3.62;59.38;101959.56;5306519;26;20105;-92
2023/12/17 04:15:11;;;;;;;0.30;0.30;;;;;;;3.63;59.38;101951.00;5307015;26;20129;-92
2023/12/17 04:17:37;;;;;;;0.32;0.32;;;;;;;3.65;59.38;101950.22;5307036;26;20072;-93
2023/12/17 04:20:50;;;;;;;0.00;0.00;;;;;;;3.74;59.38;101949.59;5306396;26;20064;-92
2023/12/17 04:23:56;;;;;;;;;;;;;;;;;;;;;
2023/12/17 04:26:58;;;;;;;;;;;;;;;;;;;;;
2023/12/17 04:29:56;;;;;;;;;;;;;;;;;;;;;
2023/12/17 04:32:45;;;;;;;;;;;;;;;;;;;;;
2023/12/17 04:35:26;;;;;;;0.65;0.65;;;;;;;3.91;59.40;101929.53;5328768;26;34342;-92
2023/12/17 04:38:07;;;;;;;1.08;0.95;;;;;;;3.95;59.39;101932.22;5307571;26;20854;-94
2023/12/17 04:40:33;;;;;;;2.92;1.98;;;;;;;3.89;59.39;101932.06;5306827;26;20036;-92
2023/12/17 04:42:58;;;;;;;0.32;0.32;;;;;;;3.93;59.39;101939.03;5306817;26;20126;-92
2023/12/17 04:45:24;;;;;;;0.00;0.00;;;;;;;3.91;59.40;101937.25;5307551;26;20061;-92
2023/12/17 04:47:49;;;;;;;1.80;0.82;;;;;;;3.71;59.39;101934.06;5307092;26;20402;-92
2023/12/17 04:50:22;;;;;;;0.62;0.62;;;;;;;3.60;59.37;101940.59;5307385;26;20072;-93
2023/12/17 04:52:47;;;;;;;0.40;0.40;;;;;;;3.64;59.38;101945.00;5308222;26;20056;-91
2023/12/17 04:55:13;;;;;;;0.85;0.62;;;;;;;3.67;59.37;101938.25;5307541;26;20123;-90
2023/12/17 04:57:38;;;;;;;0.20;0.20;;;;;;;3.74;59.38;101941.00;5310708;26;20153;-92
2023/12/17 05:00:39;;;;;;;2.72;2.17;;;;;;;3.78;59.39;101936.00;5306755;26;20057;-91
2023/12/17 05:03:05;;;;;;;0.95;0.88;;;;;;;3.58;59.38;101939.69;5254910;27;20057;-91
2023/12/17 05:05:33;;;;;;;1.90;1.80;;;;;;;3.33;59.37;101946.62;5271139;26;20069;-91
2023/12/17 05:08:14;;;;;;;0.45;0.45;;;;;;;3.52;59.37;101952.34;5307147;26;20106;-92
2023/12/17 05:17:59;;;;;;;0.35;0.35;;;;;;;3.35;59.36;101952.69;5344903;26;20109;-93
2023/12/17 05:29:56;;;;;;;0.77;0.77;;;;;;;3.21;59.35;101959.06;5286859;27;20076;-92
2023/12/17 05:32:22;;;;;;;0.85;0.85;;;;;;;3.17;59.34;101957.22;5323342;26;20091;-91
2023/12/17 05:34:50;;;;;;;1.00;0.93;;;;;;;3.34;59.37;101956.09;5330037;26;20056;-93
2023/12/17 05:37:17;;;;;;;1.85;1.17;;;;;;;3.12;59.35;101956.22;5311648;26;20063;-92
2023/12/17 05:39:45;;;;;;;2.20;1.00;;;;;;;3.30;59.35;101951.66;5311809;26;20079;-92
2023/12/17 05:42:11;;;;;;;5.93;1.65;;;;;;;3.30;59.35;101961.94;5307486;26;20086;-93
2023/12/17 05:45:59;;;;;;;0.00;0.00;;;;;;;3.27;59.36;101972.13;5307983;26;20306;-92
2023/12/17 05:48:15;;;;;;;0.05;0.05;;;;;;;3.30;59.35;101963.62;5335602;26;20060;-92
2023/12/17 05:50:50;;;;;;;0.47;0.47;;;;;;;3.24;59.35;101968.59;5292773;26;20064;-92
2023/12/17 05:53:43;;;;;;;;;;;;;;;;;;;;;
2023/12/17 05:59:24;;;;;;;0.10;0.10;;;;;;;3.30;59.36;101969.66;5373551;26;20068;-94
2023/12/17 06:11:59;;;;;;;0.65;0.65;;;;;;;3.00;59.34;101973.78;5264289;27;20114;-90
2023/12/17 06:14:34;;;;;;;;;;;;;;;;;;;;;
2023/12/17 06:17:00;;;;;;;0.05;0.05;;;;;;;3.44;59.36;101952.09;5280252;27;35606;-92
2023/12/17 06:19:25;;;;;;;0.15;0.15;;;;;;;3.48;59.37;101932.47;5262432;27;20076;-92
2023/12/17 06:24:40;;;;;;;0.00;0.00;;;;;;;3.55;59.37;101930.16;5284753;27;20681;-92
2023/12/17 06:27:45;;;;;;;0.20;0.20;;;;;;;3.49;59.37;101932.53;5304002;27;20052;-92
2023/12/17 06:54:25;;;;;;;0.00;0.00;;;;;;;3.98;59.40;101919.44;5191911;27;20084;-94
2023/12/17 06:57:11;;;;;;;0.00;0.00;;;;;;;3.86;59.39;101911.34;5158822;27;20070;-91
2023/12/17 06:59:39;;;;;;;0.00;0.00;;;;;;;4.04;59.40;101910.16;5180383;27;20077;-92
2023/12/17 07:02:05;;;;;;;0.00;0.00;;;;;;;3.86;59.39;101915.63;5200419;27;20387;-95
2023/12/17 07:04:39;;;;;;;1.25;1.25;;;;;;;4.32;59.42;101926.44;5197990;27;20125;-93
2023/12/17 07:11:08;;;;;;;;;;;;;;;;;;;;;
2023/12/17 07:14:06;;;;;;;0.37;0.37;;;;;;;4.42;59.42;101921.53;5334904;26;35181;-94
2023/12/17 07:16:52;;;;;;;0.00;0.00;;;;;;;4.69;59.44;101916.25;5308141;26;20114;-95
2023/12/17 07:20:15;;;;;;;;;;;;;;;;;;;;;
2023/12/17 07:23:10;;;;;;;0.62;0.62;;;;;;;4.65;59.44;101907.56;5304420;26;20131;-93
2023/12/17 07:25:46;;;;;;;0.25;0.25;;;;;;;4.85;59.44;101902.94;5325957;26;20073;-92
2023/12/17 07:28:36;;;;;;;0.43;0.43;;;;;;;4.73;59.44;101895.75;5308692;26;21070;-92
2023/12/17 07:31:01;;;;;;;0.22;0.22;;;;;;;4.80;59.45;101899.38;5313513;26;20039;-91
2023/12/17 07:33:55;;;;;;;0.00;0.00;;;;;;;4.81;59.45;101901.13;5290005;26;20417;-92
2023/12/17 07:36:20;;;;;;;0.08;0.08;;;;;;;5.06;59.46;101905.19;5300999;26;20700;-92
2023/12/17 07:42:41;;;;;;;1.17;0.85;;;;;;;5.27;59.47;101910.88;5147777;27;20055;-94
2023/12/17 07:45:12;;;;;;;0.00;0.00;;;;;;;5.51;59.48;101905.41;5099824;27;20075;-95
2023/12/17 07:47:51;;;;;;;0.00;0.00;;;;;;;5.62;59.49;101898.78;5156700;27;20133;-94
2023/12/17 08:20:25;;;;;;;0.30;0.30;;;;;;;6.26;59.52;101931.22;5303289;26;20092;-93
2023/12/17 12:32:58;;;;;;;0.25;0.25;;;;;;;10.37;59.75;101788.75;5347641;26;20115;-93
2023/12/17 12:35:47;;;;;;;;;;;;;;;;;;;;;
2023/12/17 12:38:36;;;;;;;0.00;0.00;;;;;;;10.59;59.76;101784.44;5333329;26;35407;-94
2023/12/17 12:47:23;;;;;;;0.08;0.05;;;;;;;10.50;59.76;101795.72;5351211;26;20396;-93
2023/12/17 12:50:35;;;;;;;;;;;;;;;;;;;;;
2023/12/17 12:59:12;;;;;;;5.18;1.60;;;;;;;10.81;59.78;101800.94;5335700;26;20098;-92
2023/12/17 13:08:24;;;;;;;;;;;;;;;;;;;;;
2023/12/17 13:11:26;;;;;;;;;;;;;;;;;;;;;
2023/12/17 13:14:34;;;;;;;;;;;;;;;;;;;;;
2023/12/17 13:24:51;;;;;;;0.45;0.45;;;;;;;11.05;59.78;101769.63;5190695;27;20075;-96
2023/12/17 13:28:18;;;;;;;;;;;;;;;;;;;;;
2023/12/17 13:34:45;;;;;;;;;;;;;;;;;;;;;
2023/12/17 13:38:14;;;;;;;;;;;;;;;;;;;;;
2023/12/17 14:32:41;;;;;;;0.00;0.00;;;;;;;10.84;59.79;101748.81;5090117;27;20060;-92
2023/12/17 14:41:26;;;;;;;;;;;;;;;;;;;;;
2023/12/17 15:02:30;;;;;;;;;;;;;;;;;;;;;
2023/12/17 15:12:15;;;;;;;0.17;0.17;;;;;;;9.94;59.73;101753.94;5124008;27;20067;-94
2023/12/17 15:18:00;;;;;;;0.00;0.00;;;;;;;9.93;59.73;101745.25;5185564;27;20901;-90
2023/12/17 15:20:27;;;;;;;1.75;0.75;;;;;;;9.83;59.72;101743.50;5258873;27;20045;-91
2023/12/17 15:22:53;;;;;;;4.57;1.65;;;;;;;9.77;59.72;101746.09;5304296;27;20114;-90
2023/12/17 15:25:18;;;;;;;0.25;0.25;;;;;;;9.64;59.71;101754.69;5301048;27;20107;-89
2023/12/17 15:27:44;;;;;;;0.35;0.35;;;;;;;9.68;59.72;101759.03;5319288;27;20120;-89
2023/12/17 15:30:12;;;;;;;0.10;0.00;;;;;;;9.43;59.70;101756.34;5319436;27;20394;-89
2023/12/17 15:32:37;;;;;;;0.22;0.22;;;;;;;9.47;59.70;101752.06;5301135;27;20414;-89
2023/12/17 15:35:03;;;;;;;0.00;0.00;;;;;;;9.58;59.71;101752.94;5319683;27;20082;-89
2023/12/17 15:37:28;;;;;;;0.20;0.10;;;;;;;9.37;59.70;101740.72;5301210;27;20060;-89
2023/12/17 15:39:54;;;;;;;2.78;0.75;;;;;;;9.56;59.71;101738.22;5300831;27;20107;-90
2023/12/17 15:42:19;;;;;;;0.03;0.03;;;;;;;9.32;59.70;101744.16;5322465;26;20128;-90
2023/12/17 15:44:44;;;;;;;0.00;0.00;;;;;;;9.24;59.69;101746.75;5323312;26;20060;-88
2023/12/17 15:47:10;;;;;;;0.47;0.47;;;;;;;9.46;59.70;101742.47;5323316;26;20380;-91
2023/12/17 15:49:36;;;;;;;0.00;0.00;;;;;;;9.17;59.69;101744.94;5304179;26;21589;-90
2023/12/17 15:52:01;;;;;;;0.10;0.10;;;;;;;9.15;59.69;101751.87;5304663;26;20145;-88
2023/12/17 15:54:26;;;;;;;0.00;0.00;;;;;;;9.09;59.69;101757.03;5304574;26;20089;-90
2023/12/17 15:56:52;;;;;;;1.17;0.30;;;;;;;9.22;59.69;101759.69;5304490;26;20072;-91
2023/12/17 15:59:17;;;;;;;0.08;0.08;;;;;;;9.10;59.68;101759.63;5323296;26;20095;-89
2023/12/17 16:01:46;;;;;;;0.98;0.32;;;;;;;9.13;59.69;101766.59;5304758;26;20151;-89
2023/12/17 16:04:12;;;;;;;0.15;0.15;;;;;;;9.12;59.69;101765.72;5323801;26;20056;-91
2023/12/17 16:06:37;;;;;;;0.00;0.00;;;;;;;9.05;59.68;101758.75;5286247;26;20353;-90
2023/12/17 16:09:03;;;;;;;0.15;0.10;;;;;;;8.96;59.69;101756.06;5305146;26;20106;-92
2023/12/17 16:11:30;;;;;;;0.10;0.10;;;;;;;8.88;59.67;101753.44;5322571;26;20061;-89
2023/12/17 16:13:55;;;;;;;0.10;0.10;;;;;;;8.88;59.67;101742.19;5304972;26;20068;-91
2023/12/17 16:16:24;;;;;;;0.93;0.57;;;;;;;8.69;59.67;101745.50;5323047;26;20092;-89
2023/12/17 16:18:50;;;;;;;0.10;0.10;;;;;;;8.73;59.66;101745.53;5323614;26;20063;-89
2023/12/17 16:21:16;;;;;;;2.42;0.65;;;;;;;8.72;59.66;101745.50;5305053;26;20137;-90
2023/12/17 16:23:42;;;;;;;4.18;0.47;;;;;;;8.86;59.67;101749.97;5304959;26;20104;-90
2023/12/17 16:26:07;;;;;;;2.67;2.47;;;;;;;9.04;59.69;101754.41;5307041;26;20772;-91
2023/12/17 16:28:33;;;;;;;0.95;0.95;;;;;;;8.91;59.68;101758.66;5304507;26;20115;-91
2023/12/17 16:30:58;;;;;;;0.62;0.30;;;;;;;8.87;59.67;101756.88;5323149;26;20075;-90
2023/12/17 16:33:23;;;;;;;1.80;0.75;;;;;;;8.75;59.67;101751.59;5323353;26;20064;-90
2023/12/17 16:35:52;;;;;;;1.25;0.32;;;;;;;8.73;59.67;101757.62;5304828;26;20443;-89
2023/12/17 16:38:17;;;;;;;0.80;0.80;;;;;;;8.68;59.66;101762.81;5318251;26;117507;-90
2023/12/17 16:40:43;;;;;;;0.88;0.65;;;;;;;8.53;59.66;101757.50;5286230;26;20385;-90
2023/12/17 16:43:10;;;;;;;0.10;0.10;;;;;;;8.64;59.66;101758.44;5305392;26;20122;-89
2023/12/17 16:45:35;;;;;;;0.22;0.22;;;;;;;8.63;59.66;101751.50;5304711;26;20066;-88
2023/12/17 16:48:00;;;;;;;1.65;0.90;;;;;;;8.74;59.67;101742.06;5322941;26;20123;-90
2023/12/17 16:50:26;;;;;;;0.17;0.17;;;;;;;8.59;59.66;101766.19;5304835;26;20099;-90
2023/12/17 16:52:51;;;;;;;0.00;0.00;;;;;;;8.49;59.65;101760.91;5323489;26;20415;-90
2023/12/17 16:55:17;;;;;;;0.08;0.08;;;;;;;8.32;59.64;101759.00;5322279;26;20090;-89
2023/12/17 16:57:42;;;;;;;0.43;0.43;;;;;;;8.42;59.64;101757.41;5304570;26;20108;-89
2023/12/17 17:00:11;;;;;;;1.20;0.35;;;;;;;8.48;59.65;101749.66;5322389;26;21111;-90
2023/12/17 17:02:37;;;;;;;0.20;0.20;;;;;;;8.27;59.64;101759.81;5305721;26;20057;-89
2023/12/17 17:05:03;;;;;;;1.05;0.98;;;;;;;8.32;59.65;101761.59;5323231;26;20071;-90
2023/12/17 17:07:28;;;;;;;0.10;0.10;;;;;;;8.19;59.63;101770.13;5304504;26;20093;-91
2023/12/17 17:09:54;;;;;;;0.32;0.32;;;;;;;8.23;59.64;101771.00;5322630;26;20071;-90
2023/12/17 17:12:19;;;;;;;0.73;0.73;;;;;;;8.28;59.64;101766.72;5322690;26;20080;-90
2023/12/17 17:14:44;;;;;;;0.20;0.15;;;;;;;8.32;59.64;101769.41;5304853;26;20063;-90
2023/12/17 17:17:13;;;;;;;0.52;0.52;;;;;;;8.20;59.64;101769.25;5322805;26;20060;-89
2023/12/17 17:19:38;;;;;;;1.27;0.95;;;;;;;8.11;59.63;101766.59;5305150;26;20118;-89
2023/12/17 17:22:03;;;;;;;0.00;0.00;;;;;;;8.04;59.62;101769.94;5304511;26;20064;-91
2023/12/17 17:24:29;;;;;;;0.98;0.35;;;;;;;7.99;59.63;101771.63;5304654;26;20398;-90
2023/12/17 17:26:55;;;;;;;0.77;0.77;;;;;;;7.92;59.62;101768.09;5303688;26;20080;-90
2023/12/17 17:29:20;;;;;;;0.03;0.03;;;;;;;7.96;59.62;101762.09;5306711;26;20068;-90
2023/12/17 17:31:50;;;;;;;5.62;2.17;;;;;;;7.95;59.63;101754.28;5304673;26;20060;-90
2023/12/17 17:34:16;;;;;;;;;;;;;;;7.75;59.61;101751.47;5324448;26;20462;-90
2023/12/17 17:36:44;;;;;;;1.05;0.77;;;;;;;7.80;59.62;101754.12;5342543;26;20002;-88
2023/12/17 17:39:11;;;;;;;0.28;0.28;;;;;;;7.88;59.62;101752.50;5305112;26;20121;-90
2023/12/17 17:41:37;;;;;;;0.73;0.73;;;;;;;7.77;59.62;101748.91;5323027;26;20075;-90
2023/12/17 17:44:03;;;;;;;1.50;0.52;;;;;;;7.60;59.60;101747.00;5287121;26;20049;-90
2023/12/17 17:46:29;;;;;;;1.08;1.08;;;;;;;7.40;59.60;101745.87;5322102;26;20083;-89
2023/12/17 17:48:55;;;;;;;0.82;0.82;;;;;;;7.36;59.59;101747.56;5287212;26;20055;-89
2023/12/17 17:51:21;;;;;;;1.52;1.42;;;;;;;7.32;59.58;101750.94;5323895;26;20072;-89
2023/12/17 17:53:49;;;;;;;0.65;0.62;;;;;;;7.37;59.59;101743.25;5286909;26;20052;-89
2023/12/17 17:56:15;;;;;;;0.05;0.05;;;;;;;7.47;59.60;101752.88;5305640;26;20062;-89
2023/12/17 17:58:42;;;;;;;0.00;0.00;;;;;;;7.31;59.59;101758.69;5305230;26;20117;-89
2023/12/17 18:01:08;;;;;;;3.20;1.50;;;;;;;7.14;59.57;101763.66;5305484;26;20109;-91
2023/12/17 18:03:34;;;;;;;0.00;0.00;;;;;;;7.07;59.57;101765.28;5287135;26;20072;-90
2023/12/17 18:06:00;;;;;;;0.50;0.50;;;;;;;7.03;59.58;101767.81;5305148;26;20109;-91
2023/12/17 18:08:26;;;;;;;0.50;0.40;;;;;;;7.03;59.58;101773.84;5286669;26;20072;-89
2023/12/17 18:10:52;;;;;;;0.50;0.50;;;;;;;6.89;59.56;101777.97;5305385;26;20059;-91
2023/12/17 18:13:21;;;;;;;1.77;1.67;;;;;;;6.98;59.57;101770.34;5305151;26;20052;-90
2023/12/17 18:15:47;;;;;;;1.45;1.25;;;;;;;7.00;59.57;101778.12;5306578;26;20446;-90
2023/12/17 18:18:13;;;;;;;0.85;0.85;;;;;;;7.09;59.58;101771.34;5286943;26;20061;-90
2023/12/17 18:20:39;;;;;;;1.42;1.33;;;;;;;7.12;59.58;101775.72;5305449;26;20086;-91
2023/12/17 18:23:05;;;;;;;2.15;0.88;;;;;;;7.26;59.58;101784.53;5286833;26;20386;-90
2023/12/17 18:25:31;;;;;;;0.80;0.75;;;;;;;6.94;59.56;101780.62;5286759;26;20104;-90
2023/12/17 18:27:56;;;;;;;1.73;1.62;;;;;;;6.90;59.57;101787.47;5287051;26;20501;-89
2023/12/17 18:30:22;;;;;;;1.85;1.12;;;;;;;6.86;59.56;101777.03;5323688;26;20124;-89
2023/12/17 18:32:49;;;;;;;0.82;0.80;;;;;;;6.74;59.55;101781.19;5325814;26;20025;-89
2023/12/17 18:35:15;;;;;;;0.65;0.65;;;;;;;7.00;59.57;101772.94;5323556;26;20072;-90
2023/12/17 18:37:41;;;;;;;0.35;0.35;;;;;;;6.67;59.55;101779.34;5304613;26;20071;-89
2023/12/17 18:40:08;;;;;;;0.00;0.00;;;;;;;6.36;59.53;101788.28;5304572;26;20057;-89
2023/12/17 18:42:36;;;;;;;2.75;1.37;;;;;;;6.50;59.53;101779.91;5323272;26;20052;-89
2023/12/17 18:45:02;;;;;;;7.12;2.40;;;;;;;6.36;59.54;101769.31;5305476;26;20123;-91
2023/12/17 18:47:28;;;;;;;0.82;0.82;;;;;;;6.29;59.53;101765.75;5286727;26;20436;-89
2023/12/17 18:49:54;;;;;;;3.72;0.70;;;;;;;6.32;59.53;101770.09;5286495;26;20083;-89
2023/12/17 18:52:20;;;;;;;2.58;2.25;;;;;;;6.16;59.52;101758.63;5323285;26;20056;-90
2023/12/17 18:54:59;;;;;;;0.52;0.52;;;;;;;6.19;59.52;101755.22;5305338;26;20114;-89
2023/12/17 18:57:26;;;;;;;0.85;0.85;;;;;;;6.15;59.52;101752.59;5304868;26;20114;-89
2023/12/17 18:59:52;;;;;;;2.17;0.40;;;;;;;5.97;59.51;101748.78;5305453;26;20085;-90
2023/12/17 19:02:19;;;;;;;2.67;1.10;;;;;;;5.89;59.50;101743.41;5304982;26;20087;-89
2023/12/17 19:04:45;;;;;;;0.08;0.08;;;;;;;5.97;59.51;101726.41;5286880;26;20056;-88
2023/12/17 19:07:11;;;;;;;0.40;0.40;;;;;;;5.80;59.50;101727.75;5305509;26;20083;-90
2023/12/17 19:09:37;;;;;;;0.32;0.32;;;;;;;5.80;59.50;101725.16;5287146;26;20075;-89
2023/12/17 19:12:04;;;;;;;1.08;0.75;;;;;;;5.71;59.50;101723.28;5305188;26;20071;-89
2023/12/17 19:14:30;;;;;;;2.20;1.98;;;;;;;5.70;59.50;101718.97;5323505;26;20634;-88
2023/12/17 19:16:56;;;;;;;0.17;0.17;;;;;;;5.92;59.51;101722.88;5305390;26;20066;-89
2023/12/17 19:19:22;;;;;;;1.67;1.55;;;;;;;5.93;59.51;101724.59;5304686;26;20143;-88
2023/12/17 19:21:49;;;;;;;1.40;1.08;;;;;;;5.78;59.50;101732.91;5323623;26;20063;-90
2023/12/17 19:24:16;;;;;;;0.70;0.50;;;;;;;5.96;59.51;101731.53;5287510;26;20062;-90
2023/12/17 19:26:43;;;;;;;1.42;1.33;;;;;;;6.00;59.51;101728.16;5305126;26;20086;-91
2023/12/17 19:29:09;;;;;;;2.45;2.22;;;;;;;5.87;59.51;101724.44;5305892;26;20111;-90
2023/12/17 19:31:35;;;;;;;0.98;0.98;;;;;;;5.96;59.51;101727.25;5305501;26;20110;-90
2023/12/17 19:34:01;;;;;;;1.08;1.08;;;;;;;5.97;59.51;101722.94;5305023;26;20087;-91
2023/12/17 19:36:29;;;;;;;2.20;2.08;;;;;;;5.67;59.49;101725.75;5289017;26;20373;-90
2023/12/17 19:38:55;;;;;;;1.35;1.35;;;;;;;5.60;59.48;101722.19;5306080;26;20056;-91
2023/12/17 19:41:21;;;;;;;0.68;0.65;;;;;;;5.69;59.50;101727.56;5283391;27;20053;-91
2023/12/17 19:43:47;;;;;;;0.30;0.30;;;;;;;5.55;59.49;101722.09;5265390;27;20067;-89
2023/12/17 19:46:14;;;;;;;0.50;0.50;;;;;;;5.61;59.48;101723.06;5265143;27;20173;-90
2023/12/17 19:48:40;;;;;;;3.05;2.75;;;;;;;5.28;59.47;101716.38;5265248;27;20143;-90
2023/12/17 19:51:07;;;;;;;1.25;0.98;;;;;;;5.24;59.47;101730.94;5264894;27;20122;-90
2023/12/17 19:53:33;;;;;;;0.43;0.43;;;;;;;5.12;59.46;101724.63;5283121;27;20116;-91
2023/12/17 19:55:59;;;;;;;1.70;1.60;;;;;;;5.16;59.47;101722.13;5265246;27;20165;-90
2023/12/17 19:58:25;;;;;;;2.72;1.15;;;;;;;5.09;59.47;101715.13;5283339;27;20079;-90
2023/12/17 20:00:52;;;;;;;1.48;1.30;;;;;;;5.08;59.46;101717.66;5283314;27;20333;-90
2023/12/17 20:03:19;;;;;;;1.37;1.27;;;;;;;5.18;59.47;101719.59;5321240;27;20084;-90
2023/12/17 20:05:45;;;;;;;6.47;0.98;;;;;;;5.22;59.46;101721.44;5280337;27;20369;-89
2023/12/17 20:08:12;;;;;;;1.37;1.27;;;;;;;5.42;59.48;101714.06;5264524;27;20075;-89
2023/12/17 20:10:39;;;;;;;1.52;1.10;;;;;;;5.38;59.47;101713.12;5282938;27;20035;-89
2023/12/17 20:13:05;;;;;;;0.68;0.68;;;;;;;5.50;59.48;101703.06;5283357;27;20052;-88
2023/12/17 20:15:33;;;;;;;0.93;0.93;;;;;;;5.16;59.47;101701.50;5282765;27;20052;-88
2023/12/17 20:17:59;;;;;;;4.15;1.87;;;;;;;5.06;59.46;101696.97;5282241;27;20057;-89
2023/12/17 20:20:28;;;;;;;0.73;0.73;;;;;;;5.02;59.46;101707.22;5283339;27;20402;-90
2023/12/17 20:22:54;;;;;;;1.77;1.65;;;;;;;5.12;59.46;101710.00;5283464;27;20052;-89
2023/12/17 20:25:20;;;;;;;0.85;0.82;;;;;;;5.00;59.46;101698.56;5282933;27;20064;-90
2023/12/17 20:27:47;;;;;;;0.43;0.43;;;;;;;5.07;59.46;101700.44;5301646;27;20134;-87
2023/12/17 20:30:13;;;;;;;2.15;1.90;;;;;;;5.12;59.47;101697.09;5264760;27;20079;-90
2023/12/17 20:32:39;;;;;;;0.32;0.32;;;;;;;5.06;59.46;101701.28;5264681;27;20523;-90
2023/12/17 20:35:05;;;;;;;1.35;0.98;;;;;;;4.98;59.45;101695.09;5264881;27;20083;-89
2023/12/17 20:37:33;;;;;;;2.10;0.80;;;;;;;5.11;59.46;101690.19;5265201;27;20064;-89
2023/12/17 20:39:59;;;;;;;7.53;1.70;;;;;;;5.01;59.47;101698.59;5303606;27;20108;-89
2023/12/17 20:42:24;;;;;;;3.55;2.70;;;;;;;4.97;59.45;101693.31;5300051;26;20078;-90
2023/12/17 20:44:50;;;;;;;0.37;0.37;;;;;;;5.03;59.46;101696.91;5304997;26;20071;-90
2023/12/17 20:47:16;;;;;;;0.05;0.05;;;;;;;4.95;59.46;101706.19;5284697;26;20067;-90
2023/12/17 20:49:42;;;;;;;10.60;2.33;;;;;;;4.87;59.45;101694.84;5286326;26;20114;-89
2023/12/17 20:52:08;;;;;;;2.05;1.75;;;;;;;5.05;59.46;101697.81;5286301;26;20098;-89
2023/12/17 20:54:33;;;;;;;1.55;1.27;;;;;;;5.05;59.46;101694.37;5304139;26;20076;-88
2023/12/17 20:56:59;;;;;;;12.45;5.18;;;;;;;5.03;59.46;101693.47;5322951;26;20052;-90
2023/12/17 20:59:25;;;;;;;1.27;1.00;;;;;;;4.99;59.45;101691.66;5304777;26;20056;-90
2023/12/17 21:01:50;;;;;;;1.83;1.55;;;;;;;5.19;59.47;101688.63;5285932;26;20424;-89
2023/12/17 21:04:16;;;;;;;3.97;1.98;;;;;;;5.02;59.46;101686.56;5304545;26;26212;-88
2023/12/17 21:06:42;;;;;;;0.43;0.43;;;;;;;5.02;59.45;101682.28;5286477;26;28259;-89
2023/12/17 21:09:12;;;;;;;1.90;1.80;;;;;;;5.11;59.46;101695.38;5305768;26;20069;-89
2023/12/17 21:11:44;;;;;;;1.15;1.15;;;;;;;5.07;59.46;101690.13;5288776;26;20442;-89
2023/12/17 21:14:10;;;;;;;4.97;2.28;;;;;;;5.16;59.46;101687.72;5286943;26;20072;-89
2023/12/17 21:16:36;;;;;;;1.33;1.27;;;;;;;5.04;59.46;101680.59;5305095;26;20076;-90
2023/12/17 21:19:01;;;;;;;3.67;2.35;;;;;;;5.36;59.48;101677.81;5287363;26;20061;-90
2023/12/17 21:21:27;;;;;;;1.58;1.48;;;;;;;5.23;59.46;101674.97;5305060;26;28757;-89
2023/12/17 21:23:52;;;;;;;2.95;2.75;;;;;;;4.92;59.45;101676.03;5286961;26;25128;-88
2023/12/17 21:26:19;;;;;;;3.15;2.92;;;;;;;4.79;59.45;101678.31;5305735;26;20053;-89
2023/12/17 21:28:46;;;;;;;2.95;2.20;;;;;;;4.80;59.45;101677.47;5305955;26;20107;-90
2023/12/17 21:31:12;;;;;;;1.87;1.75;;;;;;;4.77;59.44;101673.13;5286361;26;26874;-89
2023/12/17 21:33:38;;;;;;;2.47;1.40;;;;;;;4.75;59.45;101668.78;5286952;26;20112;-90
2023/12/17 21:36:03;;;;;;;4.47;2.65;;;;;;;4.80;59.45;101675.78;5323156;26;20330;-87
2023/12/17 21:38:30;;;;;;;8.68;1.67;;;;;;;4.90;59.45;101674.25;5304401;26;20091;-88
2023/12/17 21:40:56;;;;;;;1.67;1.52;;;;;;;4.98;59.45;101674.44;5322632;26;20048;-89
2023/12/17 21:43:22;;;;;;;3.42;3.05;;;;;;;4.91;59.45;101674.28;5304264;26;20116;-89
2023/12/17 21:45:48;;;;;;;0.47;0.47;;;;;;;4.97;59.45;101683.91;5307710;26;20407;-90
2023/12/17 21:48:13;;;;;;;0.95;0.95;;;;;;;4.86;59.44;101682.78;5305114;26;20072;-89
2023/12/17 21:50:38;;;;;;;3.70;2.92;;;;;;;4.81;59.45;101676.66;5305321;26;20102;-89
2023/12/17 21:53:04;;;;;;;1.65;1.55;;;;;;;4.82;59.45;101662.91;5304520;26;22847;-88
2023/12/17 21:55:29;;;;;;;2.10;1.98;;;;;;;4.92;59.45;101660.53;5322830;26;22606;-88
2023/12/17 21:57:54;;;;;;;3.58;1.10;;;;;;;4.81;59.45;101662.03;5304407;26;20068;-90